sensor_id;sensor_type;location;lat;lon;timestamp;temperature;humidity
20418;DHT22;10368;51.436;6.774;2023-06-14T00:02:04;21.30;55.50
20418;DHT22;10368;51.436;6.774;2023-06-14T00:04:31;21.30;55.60
20418;DHT22;10368;51.436;6.774;2023-06-14T00:06:58;21.20;55.50
20418;DHT22;10368;51.436;6.774;2023-06-14T00:09:26;21.20;55.60
20418;DHT22;10368;51.436;6.774;2023-06-14T00:11:52;21.20;55.90
20418;DHT22;10368;51.436;6.774;2023-06-14T00:14:19;21.10;55.90
20418;DHT22;10368;51.436;6.774;2023-06-14T00:16:46;21.00;56.30
20418;DHT22;10368;51.436;6.774;2023-06-14T00:19:14;21.10;56.00
20418;DHT22;10368;51.436;6.774;2023-06-14T00:21:43;21.10;55.80
20418;DHT22;10368;51.436;6.774;2023-06-14T00:24:10;21.00;56.30
20418;DHT22;10368;51.436;6.774;2023-06-14T00:26:36;20.90;56.90
20418;DHT22;10368;51.436;6.774;2023-06-14T00:29:03;20.90;56.70
20418;DHT22;10368;51.436;6.774;2023-06-14T00:31:30;21.00;56.60
20418;DHT22;10368;51.436;6.774;2023-06-14T00:33:57;20.90;57.10
20418;DHT22;10368;51.436;6.774;2023-06-14T00:36:24;20.80;57.00
20418;DHT22;10368;51.436;6.774;2023-06-14T00:41:19;20.70;57.10
20418;DHT22;10368;51.436;6.774;2023-06-14T00:43:46;20.70;58.40
20418;DHT22;10368;51.436;6.774;2023-06-14T00:46:13;20.60;57.60
20418;DHT22;10368;51.436;6.774;2023-06-14T00:48:40;20.50;57.70
20418;DHT22;10368;51.436;6.774;2023-06-14T00:51:07;20.60;58.00
20418;DHT22;10368;51.436;6.774;2023-06-14T00:53:34;20.50;58.40
20418;DHT22;10368;51.436;6.774;2023-06-14T00:56:02;20.40;58.10
20418;DHT22;10368;51.436;6.774;2023-06-14T00:58:30;20.40;58.10
20418;DHT22;10368;51.436;6.774;2023-06-14T01:00:58;20.40;58.30
20418;DHT22;10368;51.436;6.774;2023-06-14T01:03:24;20.40;58.40
20418;DHT22;10368;51.436;6.774;2023-06-14T01:05:59;20.30;58.00
20418;DHT22;10368;51.436;6.774;2023-06-14T01:11:59;20.30;58.20
20418;DHT22;10368;51.436;6.774;2023-06-14T01:14:29;20.20;58.70
20418;DHT22;10368;51.436;6.774;2023-06-14T01:16:58;20.20;58.30
20418;DHT22;10368;51.436;6.774;2023-06-14T01:19:27;20.10;58.40
20418;DHT22;10368;51.436;6.774;2023-06-14T01:21:56;20.20;58.90
20418;DHT22;10368;51.436;6.774;2023-06-14T01:24:23;20.10;58.50
20418;DHT22;10368;51.436;6.774;2023-06-14T01:26:55;20.10;58.30
20418;DHT22;10368;51.436;6.774;2023-06-14T01:29:24;20.10;58.40
20418;DHT22;10368;51.436;6.774;2023-06-14T01:31:53;20.20;58.40
20418;DHT22;10368;51.436;6.774;2023-06-14T01:34:20;20.00;58.40
20418;DHT22;10368;51.436;6.774;2023-06-14T01:36:52;20.10;58.30
20418;DHT22;10368;51.436;6.774;2023-06-14T01:39:21;19.80;58.70
20418;DHT22;10368;51.436;6.774;2023-06-14T01:41:50;19.90;58.70
20418;DHT22;10368;51.436;6.774;2023-06-14T01:44:19;19.80;59.00
20418;DHT22;10368;51.436;6.774;2023-06-14T01:46:47;19.90;58.90
20418;DHT22;10368;51.436;6.774;2023-06-14T01:49:14;19.80;58.80
20418;DHT22;10368;51.436;6.774;2023-06-14T01:51:41;19.70;59.10
20418;DHT22;10368;51.436;6.774;2023-06-14T01:54:08;19.90;58.80
20418;DHT22;10368;51.436;6.774;2023-06-14T01:56:35;19.80;58.70
20418;DHT22;10368;51.436;6.774;2023-06-14T01:59:01;19.90;58.60
20418;DHT22;10368;51.436;6.774;2023-06-14T02:01:29;19.80;58.60
20418;DHT22;10368;51.436;6.774;2023-06-14T02:03:56;19.60;59.30
20418;DHT22;10368;51.436;6.774;2023-06-14T02:06:23;19.80;59.20
20418;DHT22;10368;51.436;6.774;2023-06-14T02:08:50;19.60;59.30
20418;DHT22;10368;51.436;6.774;2023-06-14T02:11:17;19.60;59.20
20418;DHT22;10368;51.436;6.774;2023-06-14T02:13:44;19.50;59.40
20418;DHT22;10368;51.436;6.774;2023-06-14T02:16:12;19.60;59.40
20418;DHT22;10368;51.436;6.774;2023-06-14T02:18:39;19.50;59.30
20418;DHT22;10368;51.436;6.774;2023-06-14T02:21:06;19.50;59.00
20418;DHT22;10368;51.436;6.774;2023-06-14T02:23:33;19.60;59.20
20418;DHT22;10368;51.436;6.774;2023-06-14T02:26:01;19.50;59.20
20418;DHT22;10368;51.436;6.774;2023-06-14T02:28:29;19.30;59.30
20418;DHT22;10368;51.436;6.774;2023-06-14T02:30:56;19.20;60.30
20418;DHT22;10368;51.436;6.774;2023-06-14T02:43:14;19.40;59.70
20418;DHT22;10368;51.436;6.774;2023-06-14T02:45:44;19.30;59.10
20418;DHT22;10368;51.436;6.774;2023-06-14T02:48:11;19.20;60.10
20418;DHT22;10368;51.436;6.774;2023-06-14T02:50:38;19.10;60.30
20418;DHT22;10368;51.436;6.774;2023-06-14T02:53:05;19.00;60.40
20418;DHT22;10368;51.436;6.774;2023-06-14T02:55:33;19.00;60.60
20418;DHT22;10368;51.436;6.774;2023-06-14T02:58:00;19.00;60.90
20418;DHT22;10368;51.436;6.774;2023-06-14T03:00:27;19.10;60.30
20418;DHT22;10368;51.436;6.774;2023-06-14T03:02:56;19.00;60.50
20418;DHT22;10368;51.436;6.774;2023-06-14T03:05:23;19.00;60.20
20418;DHT22;10368;51.436;6.774;2023-06-14T03:07:50;18.90;61.00
20418;DHT22;10368;51.436;6.774;2023-06-14T03:10:19;18.90;60.40
20418;DHT22;10368;51.436;6.774;2023-06-14T03:12:47;18.80;61.00
20418;DHT22;10368;51.436;6.774;2023-06-14T03:15:14;18.80;60.60
20418;DHT22;10368;51.436;6.774;2023-06-14T03:17:41;18.70;60.40
20418;DHT22;10368;51.436;6.774;2023-06-14T03:20:12;18.70;60.80
20418;DHT22;10368;51.436;6.774;2023-06-14T03:22:40;18.80;61.30
20418;DHT22;10368;51.436;6.774;2023-06-14T03:25:09;18.70;61.10
20418;DHT22;10368;51.436;6.774;2023-06-14T03:27:37;18.60;60.80
20418;DHT22;10368;51.436;6.774;2023-06-14T03:30:05;18.70;61.40
20418;DHT22;10368;51.436;6.774;2023-06-14T03:32:32;18.60;60.70
20418;DHT22;10368;51.436;6.774;2023-06-14T03:35:00;18.70;61.40
20418;DHT22;10368;51.436;6.774;2023-06-14T03:37:26;18.60;60.80
20418;DHT22;10368;51.436;6.774;2023-06-14T03:39:53;18.60;61.20
20418;DHT22;10368;51.436;6.774;2023-06-14T03:42:20;18.70;61.20
20418;DHT22;10368;51.436;6.774;2023-06-14T03:44:47;18.60;60.60
20418;DHT22;10368;51.436;6.774;2023-06-14T03:47:14;18.50;61.60
20418;DHT22;10368;51.436;6.774;2023-06-14T03:49:42;18.50;61.60
20418;DHT22;10368;51.436;6.774;2023-06-14T03:52:08;18.50;61.40
20418;DHT22;10368;51.436;6.774;2023-06-14T03:54:36;18.40;61.90
20418;DHT22;10368;51.436;6.774;2023-06-14T03:57:05;18.50;61.80
20418;DHT22;10368;51.436;6.774;2023-06-14T03:59:32;18.40;61.60
20418;DHT22;10368;51.436;6.774;2023-06-14T04:01:59;18.30;61.80
20418;DHT22;10368;51.436;6.774;2023-06-14T04:04:26;18.30;62.50
20418;DHT22;10368;51.436;6.774;2023-06-14T04:06:56;18.40;62.00
20418;DHT22;10368;51.436;6.774;2023-06-14T04:09:25;18.20;62.50
20418;DHT22;10368;51.436;6.774;2023-06-14T04:11:52;18.30;62.40
20418;DHT22;10368;51.436;6.774;2023-06-14T04:14:19;18.40;62.50
20418;DHT22;10368;51.436;6.774;2023-06-14T04:16:47;18.40;62.70
20418;DHT22;10368;51.436;6.774;2023-06-14T04:19:15;18.50;62.20
20418;DHT22;10368;51.436;6.774;2023-06-14T04:21:42;18.30;61.70
20418;DHT22;10368;51.436;6.774;2023-06-14T04:24:09;18.30;62.80
20418;DHT22;10368;51.436;6.774;2023-06-14T04:26:43;18.30;62.90
20418;DHT22;10368;51.436;6.774;2023-06-14T04:29:14;18.30;62.90
20418;DHT22;10368;51.436;6.774;2023-06-14T04:31:45;18.20;63.20
20418;DHT22;10368;51.436;6.774;2023-06-14T04:34:13;18.30;63.00
20418;DHT22;10368;51.436;6.774;2023-06-14T04:36:46;18.40;63.10
20418;DHT22;10368;51.436;6.774;2023-06-14T04:39:16;18.40;62.70
20418;DHT22;10368;51.436;6.774;2023-06-14T04:41:46;18.40;63.00
20418;DHT22;10368;51.436;6.774;2023-06-14T04:44:13;18.40;63.00
20418;DHT22;10368;51.436;6.774;2023-06-14T04:46:44;18.40;62.70
20418;DHT22;10368;51.436;6.774;2023-06-14T04:49:14;18.30;64.00
20418;DHT22;10368;51.436;6.774;2023-06-14T04:51:45;18.40;63.70
20418;DHT22;10368;51.436;6.774;2023-06-14T04:54:13;18.40;64.20
20418;DHT22;10368;51.436;6.774;2023-06-14T04:56:41;18.40;64.20
20418;DHT22;10368;51.436;6.774;2023-06-14T04:59:09;18.40;63.70
20418;DHT22;10368;51.436;6.774;2023-06-14T05:01:38;18.40;63.50
20418;DHT22;10368;51.436;6.774;2023-06-14T05:04:05;18.60;64.40
20418;DHT22;10368;51.436;6.774;2023-06-14T05:06:32;18.60;63.90
20418;DHT22;10368;51.436;6.774;2023-06-14T05:08:59;18.50;63.20
20418;DHT22;10368;51.436;6.774;2023-06-14T05:11:26;18.70;62.50
20418;DHT22;10368;51.436;6.774;2023-06-14T05:13:53;18.70;62.80
20418;DHT22;10368;51.436;6.774;2023-06-14T05:16:21;18.60;62.90
20418;DHT22;10368;51.436;6.774;2023-06-14T05:18:52;18.60;63.40
20418;DHT22;10368;51.436;6.774;2023-06-14T05:21:19;18.70;62.80
20418;DHT22;10368;51.436;6.774;2023-06-14T05:23:45;18.70;63.30
20418;DHT22;10368;51.436;6.774;2023-06-14T05:26:13;18.70;62.90
20418;DHT22;10368;51.436;6.774;2023-06-14T05:28:40;18.70;63.20
20418;DHT22;10368;51.436;6.774;2023-06-14T05:31:07;18.70;63.30
20418;DHT22;10368;51.436;6.774;2023-06-14T05:33:34;18.80;63.20
20418;DHT22;10368;51.436;6.774;2023-06-14T05:36:01;18.90;63.20
20418;DHT22;10368;51.436;6.774;2023-06-14T05:38:27;18.80;63.30
20418;DHT22;10368;51.436;6.774;2023-06-14T05:40:54;18.90;63.60
20418;DHT22;10368;51.436;6.774;2023-06-14T05:43:21;19.00;63.10
20418;DHT22;10368;51.436;6.774;2023-06-14T05:45:48;19.10;63.50
20418;DHT22;10368;51.436;6.774;2023-06-14T05:48:15;19.10;63.60
20418;DHT22;10368;51.436;6.774;2023-06-14T05:50:42;19.10;63.60
20418;DHT22;10368;51.436;6.774;2023-06-14T05:53:09;19.10;63.40
20418;DHT22;10368;51.436;6.774;2023-06-14T05:55:36;19.20;63.10
20418;DHT22;10368;51.436;6.774;2023-06-14T05:58:05;19.10;62.80
20418;DHT22;10368;51.436;6.774;2023-06-14T06:00:32;19.30;63.20
20418;DHT22;10368;51.436;6.774;2023-06-14T06:03:00;19.40;62.70
20418;DHT22;10368;51.436;6.774;2023-06-14T06:05:27;19.30;62.40
20418;DHT22;10368;51.436;6.774;2023-06-14T06:07:54;19.50;62.60
20418;DHT22;10368;51.436;6.774;2023-06-14T06:10:21;19.60;62.20
20418;DHT22;10368;51.436;6.774;2023-06-14T06:12:48;19.70;61.50
20418;DHT22;10368;51.436;6.774;2023-06-14T06:15:15;20.20;59.80
20418;DHT22;10368;51.436;6.774;2023-06-14T06:17:43;19.80;60.60
20418;DHT22;10368;51.436;6.774;2023-06-14T06:20:22;19.80;60.60
20418;DHT22;10368;51.436;6.774;2023-06-14T06:22:55;19.70;60.90
20418;DHT22;10368;51.436;6.774;2023-06-14T06:25:22;19.80;61.20
20418;DHT22;10368;51.436;6.774;2023-06-14T06:27:53;20.30;59.80
20418;DHT22;10368;51.436;6.774;2023-06-14T06:30:20;20.20;60.20
20418;DHT22;10368;51.436;6.774;2023-06-14T06:32:47;20.20;59.80
20418;DHT22;10368;51.436;6.774;2023-06-14T06:35:15;20.10;59.90
20418;DHT22;10368;51.436;6.774;2023-06-14T06:37:42;20.40;59.50
20418;DHT22;10368;51.436;6.774;2023-06-14T06:40:10;20.40;59.00
20418;DHT22;10368;51.436;6.774;2023-06-14T06:42:37;20.40;59.10
20418;DHT22;10368;51.436;6.774;2023-06-14T06:45:04;20.70;58.30
20418;DHT22;10368;51.436;6.774;2023-06-14T06:47:31;20.60;58.70
20418;DHT22;10368;51.436;6.774;2023-06-14T06:49:58;20.60;57.80
20418;DHT22;10368;51.436;6.774;2023-06-14T06:52:25;20.70;57.50
20418;DHT22;10368;51.436;6.774;2023-06-14T06:54:52;20.60;57.60
20418;DHT22;10368;51.436;6.774;2023-06-14T06:57:22;20.60;57.90
20418;DHT22;10368;51.436;6.774;2023-06-14T06:59:50;20.60;57.90
20418;DHT22;10368;51.436;6.774;2023-06-14T07:02:17;20.70;57.70
20418;DHT22;10368;51.436;6.774;2023-06-14T07:04:44;20.60;57.60
20418;DHT22;10368;51.436;6.774;2023-06-14T07:07:11;20.70;57.30
20418;DHT22;10368;51.436;6.774;2023-06-14T07:09:38;20.70;57.30
20418;DHT22;10368;51.436;6.774;2023-06-14T07:12:05;20.70;57.60
20418;DHT22;10368;51.436;6.774;2023-06-14T07:14:33;20.80;57.70
20418;DHT22;10368;51.436;6.774;2023-06-14T07:17:00;21.00;56.70
20418;DHT22;10368;51.436;6.774;2023-06-14T07:19:27;21.00;56.60
20418;DHT22;10368;51.436;6.774;2023-06-14T07:21:54;21.20;55.90
20418;DHT22;10368;51.436;6.774;2023-06-14T07:24:21;21.20;55.20
20418;DHT22;10368;51.436;6.774;2023-06-14T07:26:48;21.20;55.50
20418;DHT22;10368;51.436;6.774;2023-06-14T07:29:15;21.20;55.50
20418;DHT22;10368;51.436;6.774;2023-06-14T07:31:43;21.20;55.50
20418;DHT22;10368;51.436;6.774;2023-06-14T07:34:10;21.10;56.10
20418;DHT22;10368;51.436;6.774;2023-06-14T07:36:37;21.20;56.40
20418;DHT22;10368;51.436;6.774;2023-06-14T07:39:04;21.30;56.10
20418;DHT22;10368;51.436;6.774;2023-06-14T07:41:33;21.50;55.40
20418;DHT22;10368;51.436;6.774;2023-06-14T07:43:59;21.50;55.10
20418;DHT22;10368;51.436;6.774;2023-06-14T07:46:26;21.50;55.10
20418;DHT22;10368;51.436;6.774;2023-06-14T07:48:53;21.80;54.90
20418;DHT22;10368;51.436;6.774;2023-06-14T07:51:21;21.60;54.60
20418;DHT22;10368;51.436;6.774;2023-06-14T07:53:49;21.70;54.80
20418;DHT22;10368;51.436;6.774;2023-06-14T07:56:16;21.70;54.50
20418;DHT22;10368;51.436;6.774;2023-06-14T07:58:43;21.70;54.20
20418;DHT22;10368;51.436;6.774;2023-06-14T08:01:10;21.70;54.70
20418;DHT22;10368;51.436;6.774;2023-06-14T08:03:38;21.70;54.90
20418;DHT22;10368;51.436;6.774;2023-06-14T08:06:06;21.80;54.70
20418;DHT22;10368;51.436;6.774;2023-06-14T08:08:33;21.80;54.90
20418;DHT22;10368;51.436;6.774;2023-06-14T08:11:00;21.80;54.70
20418;DHT22;10368;51.436;6.774;2023-06-14T08:13:27;21.80;54.70
20418;DHT22;10368;51.436;6.774;2023-06-14T08:15:54;21.80;55.20
20418;DHT22;10368;51.436;6.774;2023-06-14T08:18:22;21.80;55.30
20418;DHT22;10368;51.436;6.774;2023-06-14T08:20:49;21.90;55.70
20418;DHT22;10368;51.436;6.774;2023-06-14T08:23:16;21.90;55.30
20418;DHT22;10368;51.436;6.774;2023-06-14T08:25:45;21.90;55.00
20418;DHT22;10368;51.436;6.774;2023-06-14T08:28:12;22.10;55.60
20418;DHT22;10368;51.436;6.774;2023-06-14T08:30:39;22.00;55.30
20418;DHT22;10368;51.436;6.774;2023-06-14T08:33:06;22.10;55.50
20418;DHT22;10368;51.436;6.774;2023-06-14T08:35:44;22.10;55.00
20418;DHT22;10368;51.436;6.774;2023-06-14T08:38:11;22.20;55.50
20418;DHT22;10368;51.436;6.774;2023-06-14T08:40:40;22.10;55.60
20418;DHT22;10368;51.436;6.774;2023-06-14T08:43:09;22.20;55.60
20418;DHT22;10368;51.436;6.774;2023-06-14T08:45:36;22.20;55.40
20418;DHT22;10368;51.436;6.774;2023-06-14T08:48:03;22.30;54.20
20418;DHT22;10368;51.436;6.774;2023-06-14T08:50:32;22.40;54.10
20418;DHT22;10368;51.436;6.774;2023-06-14T08:53:02;22.30;54.80
20418;DHT22;10368;51.436;6.774;2023-06-14T08:55:31;22.40;55.30
20418;DHT22;10368;51.436;6.774;2023-06-14T08:58:03;22.40;54.30
20418;DHT22;10368;51.436;6.774;2023-06-14T09:00:31;22.20;54.20
20418;DHT22;10368;51.436;6.774;2023-06-14T09:02:59;22.20;53.70
20418;DHT22;10368;51.436;6.774;2023-06-14T09:05:27;22.30;54.20
20418;DHT22;10368;51.436;6.774;2023-06-14T09:07:55;22.40;54.50
20418;DHT22;10368;51.436;6.774;2023-06-14T09:10:23;22.30;54.50
20418;DHT22;10368;51.436;6.774;2023-06-14T09:12:53;22.40;54.40
20418;DHT22;10368;51.436;6.774;2023-06-14T09:15:20;22.40;55.30
20418;DHT22;10368;51.436;6.774;2023-06-14T09:17:47;22.40;54.90
20418;DHT22;10368;51.436;6.774;2023-06-14T09:20:15;22.40;54.60
20418;DHT22;10368;51.436;6.774;2023-06-14T09:22:46;22.60;54.00
20418;DHT22;10368;51.436;6.774;2023-06-14T09:25:13;22.70;53.90
20418;DHT22;10368;51.436;6.774;2023-06-14T09:28:02;22.80;53.40
20418;DHT22;10368;51.436;6.774;2023-06-14T09:30:29;22.80;53.70
20418;DHT22;10368;51.436;6.774;2023-06-14T09:32:55;22.70;53.40
20418;DHT22;10368;51.436;6.774;2023-06-14T09:35:26;22.70;52.90
20418;DHT22;10368;51.436;6.774;2023-06-14T09:37:56;22.70;53.00
20418;DHT22;10368;51.436;6.774;2023-06-14T09:40:23;22.80;52.80
20418;DHT22;10368;51.436;6.774;2023-06-14T09:42:51;22.90;52.70
20418;DHT22;10368;51.436;6.774;2023-06-14T09:45:19;22.80;52.00
20418;DHT22;10368;51.436;6.774;2023-06-14T09:47:51;22.80;51.60
20418;DHT22;10368;51.436;6.774;2023-06-14T09:50:33;22.60;50.90
20418;DHT22;10368;51.436;6.774;2023-06-14T09:53:06;22.70;51.90
20418;DHT22;10368;51.436;6.774;2023-06-14T09:55:36;22.80;51.20
20418;DHT22;10368;51.436;6.774;2023-06-14T09:58:05;23.00;51.10
20418;DHT22;10368;51.436;6.774;2023-06-14T10:00:34;22.80;51.20
20418;DHT22;10368;51.436;6.774;2023-06-14T10:03:16;23.00;51.90
20418;DHT22;10368;51.436;6.774;2023-06-14T10:05:49;23.10;52.10
20418;DHT22;10368;51.436;6.774;2023-06-14T10:08:19;23.20;51.40
20418;DHT22;10368;51.436;6.774;2023-06-14T10:10:46;23.10;51.20
20418;DHT22;10368;51.436;6.774;2023-06-14T10:13:14;23.40;51.60
20418;DHT22;10368;51.436;6.774;2023-06-14T10:16:12;23.60;50.30
20418;DHT22;10368;51.436;6.774;2023-06-14T10:19:13;23.50;50.80
20418;DHT22;10368;51.436;6.774;2023-06-14T10:21:51;23.70;51.00
20418;DHT22;10368;51.436;6.774;2023-06-14T10:24:32;23.50;50.70
20418;DHT22;10368;51.436;6.774;2023-06-14T10:26:59;23.60;51.80
20418;DHT22;10368;51.436;6.774;2023-06-14T10:29:28;23.60;51.30
20418;DHT22;10368;51.436;6.774;2023-06-14T10:32:00;23.60;50.40
20418;DHT22;10368;51.436;6.774;2023-06-14T10:34:28;23.70;50.40
20418;DHT22;10368;51.436;6.774;2023-06-14T10:37:12;23.70;50.70
20418;DHT22;10368;51.436;6.774;2023-06-14T10:39:43;23.60;49.90
20418;DHT22;10368;51.436;6.774;2023-06-14T10:42:13;23.70;50.20
20418;DHT22;10368;51.436;6.774;2023-06-14T10:44:50;23.80;50.00
20418;DHT22;10368;51.436;6.774;2023-06-14T10:47:32;23.80;50.30
20418;DHT22;10368;51.436;6.774;2023-06-14T10:50:07;24.00;49.40
20418;DHT22;10368;51.436;6.774;2023-06-14T10:52:38;24.20;49.60
20418;DHT22;10368;51.436;6.774;2023-06-14T10:55:06;24.30;48.30
20418;DHT22;10368;51.436;6.774;2023-06-14T10:57:40;24.30;48.00
20418;DHT22;10368;51.436;6.774;2023-06-14T11:00:11;24.40;47.50
20418;DHT22;10368;51.436;6.774;2023-06-14T11:05:27;24.60;47.70
20418;DHT22;10368;51.436;6.774;2023-06-14T11:10:41;25.10;48.00
20418;DHT22;10368;51.436;6.774;2023-06-14T11:13:09;25.00;47.40
20418;DHT22;10368;51.436;6.774;2023-06-14T11:15:37;25.10;47.20
20418;DHT22;10368;51.436;6.774;2023-06-14T11:18:06;25.40;47.70
20418;DHT22;10368;51.436;6.774;2023-06-14T11:20:35;25.60;47.40
20418;DHT22;10368;51.436;6.774;2023-06-14T11:23:03;26.00;46.90
20418;DHT22;10368;51.436;6.774;2023-06-14T11:25:30;25.90;46.00
20418;DHT22;10368;51.436;6.774;2023-06-14T11:27:57;25.80;46.40
20418;DHT22;10368;51.436;6.774;2023-06-14T11:30:25;26.00;46.20
20418;DHT22;10368;51.436;6.774;2023-06-14T11:32:53;26.20;47.00
20418;DHT22;10368;51.436;6.774;2023-06-14T11:35:25;25.90;45.70
20418;DHT22;10368;51.436;6.774;2023-06-14T11:37:55;26.20;46.80
20418;DHT22;10368;51.436;6.774;2023-06-14T11:42:58;26.50;45.10
20418;DHT22;10368;51.436;6.774;2023-06-14T11:45:27;27.00;45.50
20418;DHT22;10368;51.436;6.774;2023-06-14T11:47:58;27.00;45.10
20418;DHT22;10368;51.436;6.774;2023-06-14T11:50:26;26.80;45.40
20418;DHT22;10368;51.436;6.774;2023-06-14T11:52:55;27.10;45.80
20418;DHT22;10368;51.436;6.774;2023-06-14T11:55:23;27.00;44.60
20418;DHT22;10368;51.436;6.774;2023-06-14T11:57:51;26.90;45.00
20418;DHT22;10368;51.436;6.774;2023-06-14T12:00:19;27.10;45.40
20418;DHT22;10368;51.436;6.774;2023-06-14T12:02:54;27.60;45.30
20418;DHT22;10368;51.436;6.774;2023-06-14T12:05:23;27.70;43.80
20418;DHT22;10368;51.436;6.774;2023-06-14T12:07:57;27.60;44.40
20418;DHT22;10368;51.436;6.774;2023-06-14T12:10:26;27.60;45.30
20418;DHT22;10368;51.436;6.774;2023-06-14T12:12:57;27.60;44.00
20418;DHT22;10368;51.436;6.774;2023-06-14T12:15:28;28.00;45.40
20418;DHT22;10368;51.436;6.774;2023-06-14T12:17:57;27.80;43.50
20418;DHT22;10368;51.436;6.774;2023-06-14T12:20:29;28.00;44.20
20418;DHT22;10368;51.436;6.774;2023-06-14T12:23:03;27.90;43.90
20418;DHT22;10368;51.436;6.774;2023-06-14T12:25:32;27.80;43.70
20418;DHT22;10368;51.436;6.774;2023-06-14T12:28:09;27.70;44.10
20418;DHT22;10368;51.436;6.774;2023-06-14T12:30:37;27.90;44.10
20418;DHT22;10368;51.436;6.774;2023-06-14T12:33:04;28.20;44.40
20418;DHT22;10368;51.436;6.774;2023-06-14T12:35:32;27.90;43.40
20418;DHT22;10368;51.436;6.774;2023-06-14T12:38:00;28.50;43.50
20418;DHT22;10368;51.436;6.774;2023-06-14T12:40:27;28.40;43.00
20418;DHT22;10368;51.436;6.774;2023-06-14T12:42:53;28.70;44.70
20418;DHT22;10368;51.436;6.774;2023-06-14T12:45:20;28.90;43.60
20418;DHT22;10368;51.436;6.774;2023-06-14T12:47:48;28.90;44.30
20418;DHT22;10368;51.436;6.774;2023-06-14T12:50:14;28.90;44.80
20418;DHT22;10368;51.436;6.774;2023-06-14T12:52:42;28.60;42.60
20418;DHT22;10368;51.436;6.774;2023-06-14T12:55:09;28.80;44.60
20418;DHT22;10368;51.436;6.774;2023-06-14T12:57:36;28.60;43.30
20418;DHT22;10368;51.436;6.774;2023-06-14T13:00:06;28.70;43.60
20418;DHT22;10368;51.436;6.774;2023-06-14T13:02:34;28.80;43.90
20418;DHT22;10368;51.436;6.774;2023-06-14T13:05:01;29.10;42.70
20418;DHT22;10368;51.436;6.774;2023-06-14T13:07:30;29.60;42.40
20418;DHT22;10368;51.436;6.774;2023-06-14T13:09:57;29.60;41.90
20418;DHT22;10368;51.436;6.774;2023-06-14T13:12:24;29.70;41.90
20418;DHT22;10368;51.436;6.774;2023-06-14T13:14:51;29.40;42.70
20418;DHT22;10368;51.436;6.774;2023-06-14T13:17:18;29.20;42.60
20418;DHT22;10368;51.436;6.774;2023-06-14T13:19:45;29.80;42.60
20418;DHT22;10368;51.436;6.774;2023-06-14T13:22:12;29.30;42.50
20418;DHT22;10368;51.436;6.774;2023-06-14T13:24:39;29.90;42.10
20418;DHT22;10368;51.436;6.774;2023-06-14T13:27:06;29.40;42.60
20418;DHT22;10368;51.436;6.774;2023-06-14T13:29:38;29.40;43.00
20418;DHT22;10368;51.436;6.774;2023-06-14T13:32:05;29.70;42.20
20418;DHT22;10368;51.436;6.774;2023-06-14T13:34:32;29.60;42.40
20418;DHT22;10368;51.436;6.774;2023-06-14T13:36:59;28.90;42.10
20418;DHT22;10368;51.436;6.774;2023-06-14T13:39:26;29.40;42.50
20418;DHT22;10368;51.436;6.774;2023-06-14T13:41:53;29.10;42.10
20418;DHT22;10368;51.436;6.774;2023-06-14T13:44:20;29.50;42.10
20418;DHT22;10368;51.436;6.774;2023-06-14T13:46:48;29.40;43.50
20418;DHT22;10368;51.436;6.774;2023-06-14T13:49:15;29.70;42.70
20418;DHT22;10368;51.436;6.774;2023-06-14T13:51:41;30.20;41.50
20418;DHT22;10368;51.436;6.774;2023-06-14T13:54:08;30.10;41.10
20418;DHT22;10368;51.436;6.774;2023-06-14T13:56:35;29.60;43.90
20418;DHT22;10368;51.436;6.774;2023-06-14T13:59:03;29.30;42.20
20418;DHT22;10368;51.436;6.774;2023-06-14T14:01:30;29.70;42.20
20418;DHT22;10368;51.436;6.774;2023-06-14T14:03:57;29.60;41.70
20418;DHT22;10368;51.436;6.774;2023-06-14T14:06:25;29.30;41.00
20418;DHT22;10368;51.436;6.774;2023-06-14T14:08:53;29.40;41.40
20418;DHT22;10368;51.436;6.774;2023-06-14T14:11:20;29.80;41.90
20418;DHT22;10368;51.436;6.774;2023-06-14T14:13:50;29.30;41.80
20418;DHT22;10368;51.436;6.774;2023-06-14T14:16:17;29.20;41.10
20418;DHT22;10368;51.436;6.774;2023-06-14T14:18:46;29.00;41.90
20418;DHT22;10368;51.436;6.774;2023-06-14T14:21:13;28.90;42.50
20418;DHT22;10368;51.436;6.774;2023-06-14T14:23:40;29.20;43.30
20418;DHT22;10368;51.436;6.774;2023-06-14T14:26:07;29.20;41.80
20418;DHT22;10368;51.436;6.774;2023-06-14T14:28:34;29.40;42.60
20418;DHT22;10368;51.436;6.774;2023-06-14T14:31:01;29.10;41.80
20418;DHT22;10368;51.436;6.774;2023-06-14T14:33:28;29.40;42.20
20418;DHT22;10368;51.436;6.774;2023-06-14T14:35:55;29.00;42.40
20418;DHT22;10368;51.436;6.774;2023-06-14T14:38:22;29.90;41.10
20418;DHT22;10368;51.436;6.774;2023-06-14T14:40:49;29.50;41.70
20418;DHT22;10368;51.436;6.774;2023-06-14T14:43:16;29.30;41.40
20418;DHT22;10368;51.436;6.774;2023-06-14T14:45:43;29.30;42.20
20418;DHT22;10368;51.436;6.774;2023-06-14T14:48:10;28.90;42.30
20418;DHT22;10368;51.436;6.774;2023-06-14T14:50:37;29.20;43.50
20418;DHT22;10368;51.436;6.774;2023-06-14T14:53:05;29.30;41.40
20418;DHT22;10368;51.436;6.774;2023-06-14T14:55:32;29.50;42.40
20418;DHT22;10368;51.436;6.774;2023-06-14T14:58:03;28.90;42.60
20418;DHT22;10368;51.436;6.774;2023-06-14T15:00:31;28.80;43.30
20418;DHT22;10368;51.436;6.774;2023-06-14T15:02:58;29.20;44.10
20418;DHT22;10368;51.436;6.774;2023-06-14T15:05:25;28.80;41.80
20418;DHT22;10368;51.436;6.774;2023-06-14T15:07:52;28.70;42.20
20418;DHT22;10368;51.436;6.774;2023-06-14T15:10:18;29.30;41.70
20418;DHT22;10368;51.436;6.774;2023-06-14T15:12:45;28.80;42.50
20418;DHT22;10368;51.436;6.774;2023-06-14T15:15:15;28.90;42.60
20418;DHT22;10368;51.436;6.774;2023-06-14T15:17:42;28.60;49.30
20418;DHT22;10368;51.436;6.774;2023-06-14T15:20:09;28.40;42.20
20418;DHT22;10368;51.436;6.774;2023-06-14T15:22:36;28.40;42.60
20418;DHT22;10368;51.436;6.774;2023-06-14T15:25:03;28.50;42.80
20418;DHT22;10368;51.436;6.774;2023-06-14T15:27:30;28.90;42.20
20418;DHT22;10368;51.436;6.774;2023-06-14T15:29:57;28.70;43.10
20418;DHT22;10368;51.436;6.774;2023-06-14T15:32:25;28.30;42.70
20418;DHT22;10368;51.436;6.774;2023-06-14T15:34:52;28.60;43.40
20418;DHT22;10368;51.436;6.774;2023-06-14T15:37:19;28.30;42.00
20418;DHT22;10368;51.436;6.774;2023-06-14T15:39:46;28.40;42.80
20418;DHT22;10368;51.436;6.774;2023-06-14T15:42:13;28.10;42.30
20418;DHT22;10368;51.436;6.774;2023-06-14T15:44:39;28.10;42.70
20418;DHT22;10368;51.436;6.774;2023-06-14T15:47:08;28.20;42.70
20418;DHT22;10368;51.436;6.774;2023-06-14T15:49:35;28.40;42.70
20418;DHT22;10368;51.436;6.774;2023-06-14T15:52:02;28.20;42.30
20418;DHT22;10368;51.436;6.774;2023-06-14T15:54:29;28.40;42.50
20418;DHT22;10368;51.436;6.774;2023-06-14T15:56:56;29.00;43.10
20418;DHT22;10368;51.436;6.774;2023-06-14T15:59:23;28.50;42.10
20418;DHT22;10368;51.436;6.774;2023-06-14T16:01:50;28.80;41.60